Time;durP1;ratioP1;P1;durP2;ratioP2;P2;SDS_P1;SDS_P2;PMS_P1;PMS_P2;Temp;Humidity;BMP_temperature;BMP_pressure;BME280_temperature;BME280_humidity;BME280_pressure;Samples;Min_cycle;Max_cycle;Signal;HPM_P1;HPM_P2
2021/10/29 00:03:34;;;;;;;10.77;4.57;;;;;;;;;;10368594;28;20048;-63
2021/10/29 00:08:31;;;;;;;7.03;4.13;;;;;;;;;;10377359;28;20413;-63
2021/10/29 00:13:29;;;;;;;6.40;4.33;;;;;;;;;;10380546;28;20028;-64
2021/10/29 00:18:27;;;;;;;7.23;4.47;;;;;;;;;;10385285;28;20040;-63
2021/10/29 00:23:27;;;;;;;6.57;3.88;;;;;;;;;;10366315;28;20036;-64
2021/10/29 00:28:25;;;;;;;6.43;3.72;;;;;;;;;;10389900;28;20060;-64
2021/10/29 00:33:23;;;;;;;;;;;;;;;;;;10392103;28;20525;-65
2021/10/29 00:38:20;;;;;;;13.77;7.75;;;;;;;;;;10384692;28;19917;-63
2021/10/29 00:43:18;;;;;;;8.47;5.77;;;;;;;;;;10387831;28;20446;-63
2021/10/29 00:48:16;;;;;;;6.93;4.37;;;;;;;;;;10381515;28;20062;-63
2021/10/29 00:53:13;;;;;;;12.40;8.05;;;;;;;;;;10381820;28;20532;-64
2021/10/29 00:58:11;;;;;;;14.63;6.97;;;;;;;;;;10380971;28;20142;-64
2021/10/29 01:03:08;;;;;;;11.03;7.17;;;;;;;;;;10383966;28;20040;-63
2021/10/29 01:08:06;;;;;;;12.57;7.00;;;;;;;;;;10381991;28;20098;-63
2021/10/29 01:13:06;;;;;;;15.07;6.80;;;;;;;;;;10395715;28;20501;-63
2021/10/29 01:18:03;;;;;;;7.28;4.82;;;;;;;;;;10386041;28;20047;-64
2021/10/29 01:23:00;;;;;;;15.27;6.07;;;;;;;;;;10380899;28;20044;-63
2021/10/29 01:27:58;;;;;;;6.53;4.13;;;;;;;;;;10373899;28;20044;-63
2021/10/29 01:32:55;;;;;;;13.50;5.97;;;;;;;;;;10388354;28;20047;-64
2021/10/29 01:37:52;;;;;;;11.10;5.30;;;;;;;;;;10380978;28;20032;-63
2021/10/29 01:42:50;;;;;;;11.27;5.80;;;;;;;;;;10380592;28;20032;-64
2021/10/29 01:47:47;;;;;;;10.90;5.77;;;;;;;;;;10379887;28;20028;-62
2021/10/29 01:52:44;;;;;;;18.77;7.70;;;;;;;;;;10387111;28;20379;-63
2021/10/29 01:57:42;;;;;;;12.43;7.20;;;;;;;;;;10378464;28;20028;-63
2021/10/29 02:02:40;;;;;;;13.80;6.33;;;;;;;;;;10382013;28;20501;-63
2021/10/29 02:07:37;;;;;;;12.82;7.15;;;;;;;;;;10376876;28;20029;-64
2021/10/29 02:12:35;;;;;;;12.23;4.80;;;;;;;;;;10377684;28;20020;-63
2021/10/29 02:17:32;;;;;;;10.70;4.63;;;;;;;;;;10385240;28;20036;-63
2021/10/29 02:22:30;;;;;;;16.10;7.20;;;;;;;;;;10376155;28;20028;-63
2021/10/29 02:27:27;;;;;;;15.00;7.13;;;;;;;;;;10384755;28;20037;-62
2021/10/29 02:32:25;;;;;;;12.03;5.87;;;;;;;;;;10391938;28;20028;-63
2021/10/29 02:37:23;;;;;;;11.90;5.50;;;;;;;;;;10381382;28;20365;-61
2021/10/29 02:42:21;;;;;;;13.20;6.93;;;;;;;;;;10382855;28;20127;-66
2021/10/29 02:47:18;;;;;;;7.97;5.20;;;;;;;;;;10382646;28;20120;-66
2021/10/29 02:52:15;;;;;;;9.37;4.87;;;;;;;;;;10379463;28;20040;-65
2021/10/29 02:57:13;;;;;;;10.43;6.03;;;;;;;;;;10382039;28;20572;-62
2021/10/29 03:02:10;;;;;;;10.77;5.73;;;;;;;;;;10386085;28;20447;-64
2021/10/29 03:07:08;;;;;;;12.27;5.83;;;;;;;;;;10379655;28;20044;-63
2021/10/29 03:12:05;;;;;;;10.43;5.77;;;;;;;;;;10384730;28;20054;-64
2021/10/29 03:17:03;;;;;;;13.00;5.50;;;;;;;;;;10389113;28;20047;-63
2021/10/29 03:22:00;;;;;;;13.50;6.67;;;;;;;;;;10378975;28;20040;-64
2021/10/29 03:26:57;;;;;;;13.47;5.83;;;;;;;;;;10382910;28;20044;-64
2021/10/29 03:31:55;;;;;;;12.97;6.80;;;;;;;;;;10386970;28;20406;-64
2021/10/29 03:36:53;;;;;;;8.83;5.40;;;;;;;;;;10355665;28;20112;-65
2021/10/29 03:41:57;;;;;;;11.40;6.97;;;;;;;;;;10361627;28;20574;-65
2021/10/29 03:46:57;;;;;;;14.13;7.40;;;;;;;;;;10383415;28;20119;-64
2021/10/29 03:52:06;;;;;;;13.43;7.07;;;;;;;;;;10384322;28;20036;-64
2021/10/29 04:02:01;;;;;;;11.73;6.17;;;;;;;;;;10353843;28;21119;-65
2021/10/29 04:06:59;;;;;;;14.98;7.75;;;;;;;;;;10372358;28;20082;-64
2021/10/29 04:11:58;;;;;;;13.77;7.17;;;;;;;;;;10367063;28;20028;-59
2021/10/29 04:16:56;;;;;;;14.93;7.55;;;;;;;;;;10355452;28;20036;-63
2021/10/29 04:21:54;;;;;;;10.20;6.33;;;;;;;;;;10382207;28;20043;-64
2021/10/29 04:26:51;;;;;;;14.97;6.80;;;;;;;;;;10371068;28;20123;-64
2021/10/29 04:31:49;;;;;;;14.37;6.57;;;;;;;;;;10382251;28;20780;-65
2021/10/29 04:36:47;;;;;;;18.00;8.82;;;;;;;;;;10379336;28;20532;-64
2021/10/29 04:41:46;;;;;;;12.90;6.70;;;;;;;;;;10375476;28;20028;-63
2021/10/29 04:46:44;;;;;;;16.25;7.57;;;;;;;;;;10358297;28;20048;-62
2021/10/29 04:51:42;;;;;;;12.63;6.13;;;;;;;;;;10375532;28;20533;-62
2021/10/29 04:56:40;;;;;;;;;;;;;;;;;;10370902;28;20044;-62
2021/10/29 05:01:37;;;;;;;13.30;6.90;;;;;;;;;;10378236;28;19996;-63
2021/10/29 05:06:35;;;;;;;12.87;6.03;;;;;;;;;;10366500;28;20271;-61
2021/10/29 05:11:32;;;;;;;13.00;5.57;;;;;;;;;;10361243;28;20588;-62
2021/10/29 05:16:30;;;;;;;12.77;5.77;;;;;;;;;;10357985;28;20033;-62
2021/10/29 05:21:27;;;;;;;14.27;8.13;;;;;;;;;;10371871;28;20105;-61
2021/10/29 05:26:25;;;;;;;11.27;6.00;;;;;;;;;;10368835;28;20064;-61
2021/10/29 05:31:22;;;;;;;13.27;6.90;;;;;;;;;;10361551;28;20037;-62
2021/10/29 05:36:20;;;;;;;10.20;5.30;;;;;;;;;;10366968;28;20072;-62
2021/10/29 05:41:17;;;;;;;9.73;5.87;;;;;;;;;;10366826;28;20102;-61
2021/10/29 05:46:15;;;;;;;13.73;5.50;;;;;;;;;;10367429;28;20930;-62
2021/10/29 05:51:14;;;;;;;10.23;5.13;;;;;;;;;;10354191;28;20094;-61
2021/10/29 05:56:11;;;;;;;11.27;6.05;;;;;;;;;;10367202;28;20563;-61
2021/10/29 06:01:09;;;;;;;10.83;5.17;;;;;;;;;;10372691;28;20442;-63
2021/10/29 06:06:06;;;;;;;14.27;5.97;;;;;;;;;;10371509;28;20389;-62
2021/10/29 06:11:04;;;;;;;11.73;6.60;;;;;;;;;;10364211;28;20457;-63
2021/10/29 06:16:02;;;;;;;11.48;6.05;;;;;;;;;;10361535;28;20049;-64
2021/10/29 06:20:59;;;;;;;9.80;5.47;;;;;;;;;;10357877;28;20040;-64
2021/10/29 06:25:57;;;;;;;9.73;5.63;;;;;;;;;;10363701;28;20124;-62
2021/10/29 06:30:55;;;;;;;11.60;5.05;;;;;;;;;;10370637;28;20422;-61
2021/10/29 06:35:53;;;;;;;;;;;;;;;;;;10353756;28;20064;-62
2021/10/29 06:40:51;;;;;;;13.63;5.85;;;;;;;;;;10363703;28;20350;-62
2021/10/29 07:43:50;;;;;;;12.95;6.25;;;;;;;;;;10360281;28;20040;-61
2021/10/29 07:48:48;;;;;;;11.43;6.25;;;;;;;;;;10364166;28;20132;-63
2021/10/29 07:53:45;;;;;;;16.10;5.73;;;;;;;;;;10363286;28;20041;-63
2021/10/29 07:58:43;;;;;;;13.47;5.90;;;;;;;;;;10349071;28;20336;-63
2021/10/29 08:03:41;;;;;;;10.47;5.87;;;;;;;;;;10357210;28;20580;-64
2021/10/29 08:08:38;;;;;;;10.80;5.97;;;;;;;;;;10355186;28;20058;-64
2021/10/29 08:13:35;;;;;;;11.07;6.43;;;;;;;;;;10355322;28;20028;-63
2021/10/29 08:18:41;;;;;;;13.77;6.77;;;;;;;;;;10357341;28;20043;-62
2021/10/29 08:23:39;;;;;;;9.82;5.35;;;;;;;;;;10360736;28;20028;-62
2021/10/29 08:28:36;;;;;;;;;;;;;;;;;;10361200;28;20071;-63
2021/10/29 08:33:34;;;;;;;12.32;5.85;;;;;;;;;;10361382;28;20011;-62
2021/10/29 08:38:32;;;;;;;16.03;7.13;;;;;;;;;;10363486;28;20056;-62
2021/10/29 08:43:30;;;;;;;14.15;6.15;;;;;;;;;;10376494;28;20043;-62
2021/10/29 08:48:29;;;;;;;10.20;4.97;;;;;;;;;;10368882;28;20040;-64
2021/10/29 08:53:27;;;;;;;8.70;5.05;;;;;;;;;;10380761;28;20032;-63
2021/10/29 08:58:25;;;;;;;13.63;5.97;;;;;;;;;;10385416;28;20044;-62
2021/10/29 09:03:29;;;;;;;12.93;6.60;;;;;;;;;;10384834;28;20082;-62
2021/10/29 09:35:24;;;;;;;8.90;4.35;;;;;;;;;;10390126;28;21191;-61
2021/10/29 09:40:23;;;;;;;12.70;4.75;;;;;;;;;;10386418;28;20711;-61
2021/10/29 09:45:27;;;;;;;11.57;6.32;;;;;;;;;;10380112;28;20036;-63
2021/10/29 09:50:33;;;;;;;7.32;5.15;;;;;;;;;;10365421;28;20040;-63
2021/10/29 10:00:47;;;;;;;11.57;4.68;;;;;;;;;;10380360;28;20475;-62
2021/10/29 10:05:45;;;;;;;8.98;4.43;;;;;;;;;;10375550;28;20041;-61
2021/10/29 10:10:46;;;;;;;11.13;4.70;;;;;;;;;;10375867;28;20040;-62
2021/10/29 10:15:45;;;;;;;7.78;4.13;;;;;;;;;;10375663;28;20025;-63
2021/10/29 10:20:43;;;;;;;8.98;5.07;;;;;;;;;;10375648;28;20029;-62
2021/10/29 10:41:29;;;;;;;6.22;3.53;;;;;;;;;;10346178;28;20486;-61
2021/10/29 10:46:20;;;;;;;5.57;2.90;;;;;;;;;;10357020;28;20032;-62
2021/10/29 10:51:23;;;;;;;5.50;3.75;;;;;;;;;;10339440;28;20044;-62
2021/10/29 11:06:50;;;;;;;8.05;3.35;;;;;;;;;;10330351;28;20053;-63
2021/10/29 11:11:55;;;;;;;8.65;3.58;;;;;;;;;;10359962;28;20747;-62
2021/10/29 11:16:56;;;;;;;3.70;2.22;;;;;;;;;;10362924;28;20094;-60
2021/10/29 11:21:57;;;;;;;7.10;3.65;;;;;;;;;;10359150;28;20025;-64
2021/10/29 11:27:01;;;;;;;2.97;2.17;;;;;;;;;;10364811;28;20047;-64
2021/10/29 11:31:59;;;;;;;4.50;3.20;;;;;;;;;;10364058;28;20040;-63
2021/10/29 11:36:56;;;;;;;9.47;2.60;;;;;;;;;;10360139;28;20036;-61
2021/10/29 11:41:55;;;;;;;6.20;3.03;;;;;;;;;;10366277;28;20401;-61
2021/10/29 11:46:53;;;;;;;5.90;3.38;;;;;;;;;;10355110;28;20032;-61
2021/10/29 11:51:53;;;;;;;5.18;2.97;;;;;;;;;;10360751;28;20064;-63
2021/10/29 12:12:15;;;;;;;6.90;3.83;;;;;;;;;;10365724;28;20040;-62
2021/10/29 12:17:20;;;;;;;12.80;4.18;;;;;;;;;;10365976;28;20489;-62
2021/10/29 12:27:33;;;;;;;6.80;2.88;;;;;;;;;;10374258;28;20052;-61
2021/10/29 12:32:45;;;;;;;7.45;3.60;;;;;;;;;;10366953;28;20131;-61
2021/10/29 12:53:31;;;;;;;5.25;1.38;;;;;;;;;;10367589;28;20474;-61
2021/10/29 13:03:44;;;;;;;4.15;2.03;;;;;;;;;;10379312;28;20052;-63
2021/10/29 13:08:42;;;;;;;4.68;3.05;;;;;;;;;;10382504;28;20040;-64
2021/10/29 13:13:51;;;;;;;4.68;2.38;;;;;;;;;;10384311;28;20036;-62
2021/10/29 13:55:50;;;;;;;3.70;2.25;;;;;;;;;;10377543;28;20083;-63
2021/10/29 14:32:42;;;;;;;2.45;1.95;;;;;;;;;;10349338;28;20043;-60
2021/10/29 14:37:49;;;;;;;4.35;2.25;;;;;;;;;;10363800;28;20582;-61
2021/10/29 14:42:51;;;;;;;3.45;2.35;;;;;;;;;;10363703;28;20025;-61
2021/10/29 15:00:13;;;;;;;3.97;2.17;;;;;;;;;;10360337;28;20032;-61
2021/10/29 15:03:53;;;;;;;7.68;2.55;;;;;;;;;;10356693;28;20062;-62
2021/10/29 15:45:37;;;;;;;2.67;2.30;;;;;;;;;;10360292;28;20480;-59
2021/10/29 15:50:36;;;;;;;3.83;2.60;;;;;;;;;;10360440;28;20530;-59
2021/10/29 16:17:07;;;;;;;3.45;2.28;;;;;;;;;;10352285;28;20486;-63
2021/10/29 16:22:07;;;;;;;4.53;3.10;;;;;;;;;;10367062;28;20032;-62
2021/10/29 16:27:05;;;;;;;3.40;1.90;;;;;;;;;;10365575;28;20093;-62
2021/10/29 16:32:12;;;;;;;9.47;2.90;;;;;;;;;;10366850;28;20044;-61
2021/10/29 16:37:09;;;;;;;7.50;2.72;;;;;;;;;;10368557;28;20037;-62
2021/10/29 16:42:07;;;;;;;3.53;2.60;;;;;;;;;;10363118;28;20036;-58
2021/10/29 16:47:05;;;;;;;5.43;2.10;;;;;;;;;;10372579;28;20040;-61
2021/10/29 16:52:02;;;;;;;2.97;2.23;;;;;;;;;;10355060;28;20045;-63
2021/10/29 16:57:00;;;;;;;3.37;2.13;;;;;;;;;;10367246;28;20070;-62
2021/10/29 17:01:57;;;;;;;2.90;2.17;;;;;;;;;;10359469;28;20044;-64
2021/10/29 17:06:54;;;;;;;4.70;2.37;;;;;;;;;;10367118;28;20052;-63
2021/10/29 17:11:53;;;;;;;3.50;2.30;;;;;;;;;;10351418;28;20064;-63
2021/10/29 17:16:51;;;;;;;4.28;2.65;;;;;;;;;;10366638;28;20127;-62
2021/10/29 17:21:48;;;;;;;3.65;2.67;;;;;;;;;;10351544;28;21264;-61
2021/10/29 17:26:45;;;;;;;4.50;2.63;;;;;;;;;;10358811;28;20259;-61
2021/10/29 17:31:44;;;;;;;4.70;3.37;;;;;;;;;;10364931;28;20061;-60
2021/10/29 17:36:41;;;;;;;4.40;3.00;;;;;;;;;;10343259;28;20037;-61
2021/10/29 17:41:39;;;;;;;4.77;2.77;;;;;;;;;;10359559;28;20029;-62
2021/10/29 17:46:36;;;;;;;3.03;2.30;;;;;;;;;;10371755;28;20040;-62
2021/10/29 17:51:34;;;;;;;5.70;3.03;;;;;;;;;;10360839;28;20103;-62
2021/10/29 17:56:31;;;;;;;6.33;2.63;;;;;;;;;;10373495;28;20039;-62
2021/10/29 18:01:29;;;;;;;11.57;3.13;;;;;;;;;;10357172;28;20121;-63
2021/10/29 18:06:27;;;;;;;4.33;2.43;;;;;;;;;;10364583;28;20078;-63
2021/10/29 18:11:25;;;;;;;5.38;2.17;;;;;;;;;;10366167;28;20482;-63
2021/10/29 18:16:26;;;;;;;4.47;2.28;;;;;;;;;;10365408;28;20056;-62
2021/10/29 18:21:25;;;;;;;5.90;3.45;;;;;;;;;;10350099;28;20033;-62
2021/10/29 18:26:24;;;;;;;7.88;3.00;;;;;;;;;;10380725;28;20064;-62
2021/10/29 18:31:22;;;;;;;5.38;3.08;;;;;;;;;;10361093;28;20041;-61
2021/10/29 18:36:19;;;;;;;7.88;3.58;;;;;;;;;;10347913;28;20032;-62
2021/10/29 18:41:17;;;;;;;4.90;3.07;;;;;;;;;;10353593;28;20028;-62
2021/10/29 18:46:16;;;;;;;5.03;3.20;;;;;;;;;;10349337;28;20040;-61
2021/10/29 18:51:13;;;;;;;5.63;3.00;;;;;;;;;;10354491;28;20490;-64
2021/10/29 18:56:10;;;;;;;4.17;2.87;;;;;;;;;;10379219;28;20033;-64
2021/10/29 19:01:09;;;;;;;4.50;3.17;;;;;;;;;;10357912;28;20044;-62
2021/10/29 19:06:08;;;;;;;7.60;3.42;;;;;;;;;;10354379;28;20044;-63
2021/10/29 19:11:06;;;;;;;5.60;3.22;;;;;;;;;;10357565;28;20093;-64
2021/10/29 19:16:03;;;;;;;7.73;3.30;;;;;;;;;;10362815;28;20037;-65
2021/10/29 19:21:02;;;;;;;6.43;3.03;;;;;;;;;;10356275;28;20081;-64
2021/10/29 19:26:00;;;;;;;6.03;3.42;;;;;;;;;;10352678;28;20169;-64
2021/10/29 19:30:57;;;;;;;4.27;2.30;;;;;;;;;;10368815;28;20493;-63
2021/10/29 19:36:01;;;;;;;4.07;2.57;;;;;;;;;;10369523;28;20028;-64
2021/10/29 19:40:59;;;;;;;4.85;3.13;;;;;;;;;;10362983;28;20481;-63
2021/10/29 19:45:57;;;;;;;7.82;3.72;;;;;;;;;;10368226;28;20028;-62
2021/10/29 19:50:55;;;;;;;15.63;5.10;;;;;;;;;;10360715;28;20077;-63
2021/10/29 19:55:55;;;;;;;4.03;2.53;;;;;;;;;;10337761;28;20050;-63
2021/10/29 20:00:53;;;;;;;4.90;3.10;;;;;;;;;;10359189;28;20036;-63
2021/10/29 20:05:51;;;;;;;3.88;2.65;;;;;;;;;;10346044;28;20085;-63
2021/10/29 20:10:48;;;;;;;6.30;3.13;;;;;;;;;;10356065;28;20446;-64
2021/10/29 20:15:46;;;;;;;5.43;3.83;;;;;;;;;;10349302;28;20036;-64
2021/10/29 20:20:44;;;;;;;5.00;2.77;;;;;;;;;;10370120;28;20033;-63
2021/10/29 20:25:42;;;;;;;5.47;3.65;;;;;;;;;;10353381;28;20295;-62
2021/10/29 20:30:43;;;;;;;5.07;3.20;;;;;;;;;;10242138;28;20520;-61
2021/10/29 20:35:41;;;;;;;3.70;2.20;;;;;;;;;;10251706;28;20051;-62
2021/10/29 20:40:40;;;;;;;6.10;3.08;;;;;;;;;;10256803;28;20047;-62
2021/10/29 20:45:38;;;;;;;6.55;4.45;;;;;;;;;;10240720;28;20801;-62
2021/10/29 20:50:35;;;;;;;4.37;3.20;;;;;;;;;;10246730;28;20036;-63
2021/10/29 20:55:33;;;;;;;5.67;4.00;;;;;;;;;;10256010;28;21296;-62
2021/10/29 21:00:31;;;;;;;8.77;4.43;;;;;;;;;;10248780;28;20045;-62
2021/10/29 21:05:28;;;;;;;7.30;4.18;;;;;;;;;;10254112;28;20877;-62
2021/10/29 21:10:26;;;;;;;5.63;3.03;;;;;;;;;;10294128;28;20036;-64
2021/10/29 21:15:23;;;;;;;5.57;3.33;;;;;;;;;;10359617;28;20131;-62
2021/10/29 21:20:21;;;;;;;5.47;2.97;;;;;;;;;;10364822;28;20067;-63
2021/10/29 21:25:19;;;;;;;9.03;2.87;;;;;;;;;;10383143;28;20037;-63
2021/10/29 21:30:16;;;;;;;;;;;;;;;;;;10338304;28;20864;-63
2021/10/29 21:35:14;;;;;;;5.35;3.00;;;;;;;;;;10364851;28;20317;-61
2021/10/29 21:40:12;;;;;;;6.43;3.87;;;;;;;;;;10355101;28;20044;-59
2021/10/29 21:45:10;;;;;;;7.03;3.43;;;;;;;;;;10361925;28;20041;-62
2021/10/29 21:50:08;;;;;;;5.32;2.15;;;;;;;;;;10355682;28;20854;-61
2021/10/29 21:55:05;;;;;;;7.50;3.50;;;;;;;;;;10368057;28;20503;-61
2021/10/29 22:00:06;;;;;;;11.03;4.43;;;;;;;;;;10365907;28;20567;-61
2021/10/29 22:05:04;;;;;;;4.70;3.47;;;;;;;;;;10367702;28;20052;-61
2021/10/29 22:10:02;;;;;;;6.43;3.17;;;;;;;;;;10366423;28;20048;-62
2021/10/29 22:15:00;;;;;;;6.53;4.40;;;;;;;;;;10366333;28;20033;-61
2021/10/29 22:19:58;;;;;;;5.50;3.58;;;;;;;;;;10370480;28;20155;-61
2021/10/29 22:24:55;;;;;;;6.83;4.23;;;;;;;;;;10365872;28;20123;-59
2021/10/29 22:29:54;;;;;;;6.43;2.67;;;;;;;;;;10367618;28;20035;-62
2021/10/29 22:34:51;;;;;;;10.15;3.50;;;;;;;;;;10378951;28;20454;-61
2021/10/29 22:39:49;;;;;;;8.00;3.40;;;;;;;;;;10366728;28;20048;-61
2021/10/29 22:44:46;;;;;;;4.30;3.10;;;;;;;;;;10371716;28;20353;-62
2021/10/29 22:49:43;;;;;;;6.80;3.10;;;;;;;;;;10375871;28;20090;-61
2021/10/29 22:54:41;;;;;;;3.43;2.43;;;;;;;;;;10372640;28;20485;-61
2021/10/29 22:59:38;;;;;;;3.57;2.07;;;;;;;;;;10371905;28;20040;-62
2021/10/29 23:04:36;;;;;;;9.80;5.57;;;;;;;;;;10377306;28;20422;-62
2021/10/29 23:09:34;;;;;;;7.83;4.30;;;;;;;;;;10373618;28;20041;-61
2021/10/29 23:14:31;;;;;;;4.13;3.10;;;;;;;;;;10370564;28;20286;-60
2021/10/29 23:19:29;;;;;;;5.03;3.00;;;;;;;;;;10366651;28;20090;-61
2021/10/29 23:24:26;;;;;;;3.47;2.55;;;;;;;;;;10368454;28;20029;-63
2021/10/29 23:29:24;;;;;;;5.50;3.10;;;;;;;;;;10374286;28;20123;-62
2021/10/29 23:34:21;;;;;;;10.20;4.77;;;;;;;;;;10377194;28;20036;-61
2021/10/29 23:39:18;;;;;;;8.00;4.37;;;;;;;;;;10375448;28;20082;-63
2021/10/29 23:44:16;;;;;;;5.23;3.30;;;;;;;;;;10374368;28;20039;-62
2021/10/29 23:49:13;;;;;;;6.87;4.07;;;;;;;;;;10368525;28;20124;-62
2021/10/29 23:54:11;;;;;;;3.40;2.83;;;;;;;;;;10373032;28;20032;-62
2021/10/29 23:59:08;;;;;;;9.13;3.83;;;;;;;;;;10371813;28;20040;-63
